.
WxDataArchive / Data Records for 2008-07-18
2008-07-17 July 2008 2008-07-19

Data Records for Friday, 18 July 2008

Time	Temp	Chill	HIndex	Humid	Dewpt	 Wind 	HiWind	WindDir	Rain 	Barom 
-----	----	-----	------	-----	-----	------	------	-------	-----	----- 
00:00	72.3	72.3	72.3	84	67.2	0	0	---	0.00	29.972 
00:05	72.1	72.1	72.1	84	67.0	0	0	---	0.00	29.973 
00:10	72.1	72.1	72.1	84	67.0	0	0	---	0.00	29.976 
00:15	72.0	72.0	72.0	84	66.9	0	0	---	0.00	29.977 
00:20	72.0	72.0	72.0	84	66.9	0	0	---	0.00	29.979 
00:25	71.8	71.8	71.8	84	66.7	0	0	---	0.00	29.976 
00:30	71.6	71.6	71.6	85	66.8	0	0	---	0.00	29.975 
00:35	71.5	71.5	71.5	85	66.7	0	0	---	0.00	29.974 
00:40	71.3	71.3	71.3	85	66.5	0	0	---	0.00	29.973 
00:45	71.3	71.3	71.3	86	66.9	0	0	---	0.00	29.972 
00:50	71.1	71.1	71.1	86	66.7	0	0	---	0.00	29.972 
00:55	71.1	71.1	71.1	86	66.7	0	0	---	0.00	29.972 
01:00	71.1	71.1	71.1	86	66.7	0	0	---	0.00	29.970 
01:05	70.9	70.9	70.9	86	66.5	0	0	---	0.00	29.968 
01:10	70.9	70.9	70.9	86	66.5	0	0	---	0.00	29.968 
01:15	70.9	70.9	70.9	86	66.5	0	0	---	0.00	29.968 
01:20	70.8	70.8	70.8	86	66.4	0	0	---	0.00	29.967 
01:25	70.8	70.8	70.8	86	66.4	0	0	---	0.00	29.965 
01:30	70.8	70.8	70.8	86	66.4	0	0	---	0.00	29.963 
01:35	70.6	70.6	70.6	86	66.2	0	0	---	0.00	29.963 
01:40	70.6	70.6	70.6	87	66.5	0	0	---	0.00	29.966 
01:45	70.6	70.6	70.6	86	66.2	0	0	---	0.00	29.967 
01:50	70.6	70.6	70.6	86	66.2	0	0	---	0.00	29.966 
01:55	70.8	70.8	70.8	86	66.4	0	0	---	0.00	29.965 
02:00	70.8	70.8	70.8	86	66.4	0	0	---	0.00	29.962 
02:05	70.8	70.8	70.8	85	66.1	0	0	---	0.00	29.961 
02:10	70.8	70.8	70.8	85	66.1	0	0	---	0.00	29.962 
02:15	70.8	70.8	70.8	85	66.1	0	1	248	0.00	29.963 
02:20	70.8	70.8	70.8	85	66.1	0	0	---	0.00	29.962 
02:25	70.8	70.8	70.8	85	66.1	0	0	---	0.00	29.959 
02:30	70.6	70.6	70.6	85	65.9	0	0	---	0.00	29.960 
02:35	70.6	70.6	70.6	85	65.9	0	0	---	0.00	29.958 
02:40	70.6	70.6	70.6	85	65.9	0	0	---	0.00	29.956 
02:45	70.6	70.6	70.6	85	65.9	0	0	---	0.00	29.955 
02:50	70.4	70.4	70.4	85	65.7	0	0	---	0.00	29.958 
02:55	70.3	70.3	70.3	85	65.6	0	0	---	0.00	29.958 
03:00	69.9	69.9	69.9	85	65.2	0	0	---	0.00	29.958 
03:05	69.8	69.8	69.8	86	65.4	0	0	---	0.00	29.956 
03:10	69.6	69.6	69.6	86	65.2	0	0	---	0.00	29.955 
03:15	69.4	69.4	69.4	86	65.0	0	0	---	0.00	29.955 
03:20	69.3	69.3	69.3	87	65.3	0	0	---	0.00	29.955 
03:25	69.3	69.3	69.3	87	65.3	0	0	---	0.00	29.955 
03:30	69.1	69.1	69.1	87	65.1	0	0	---	0.00	29.954 
03:35	68.9	68.9	68.9	87	64.9	0	0	---	0.00	29.953 
03:40	68.8	68.8	68.8	88	65.1	0	0	---	0.00	29.953 
03:45	68.6	68.6	68.6	88	64.9	0	0	---	0.00	29.952 
03:50	68.6	68.6	68.6	88	64.9	0	0	---	0.00	29.951 
03:55	68.6	68.6	68.6	88	64.9	0	0	---	0.00	29.951 
04:00	68.6	68.6	68.6	89	65.2	0	0	---	0.00	29.951 
04:05	68.4	68.4	68.4	89	65.0	0	0	---	0.00	29.950 
04:10	68.4	68.4	68.4	88	64.7	0	0	---	0.00	29.951 
04:15	68.4	68.4	68.4	89	65.0	0	0	---	0.00	29.952 
04:20	68.3	68.3	68.3	89	64.9	0	0	---	0.00	29.953 
04:25	68.3	68.3	68.3	89	64.9	0	0	---	0.00	29.954 
04:30	67.9	67.9	67.9	89	64.5	0	0	---	0.00	29.955 
04:35	67.9	67.9	67.9	89	64.5	0	0	---	0.00	29.955 
04:40	67.8	67.8	67.8	89	64.4	0	0	---	0.00	29.955 
04:45	67.6	67.6	67.6	90	64.6	0	0	---	0.00	29.955 
04:50	67.4	67.4	67.4	90	64.4	0	0	---	0.00	29.955 
04:55	67.1	67.1	67.1	90	64.1	0	0	---	0.00	29.957 
05:00	66.9	66.9	66.9	90	63.9	0	0	---	0.00	29.956 
05:05	66.9	66.9	66.9	91	64.2	0	0	---	0.00	29.958 
05:10	66.8	66.8	66.8	91	64.1	0	0	---	0.00	29.958 
05:15	66.6	66.6	66.6	91	63.9	0	0	---	0.00	29.959 
05:20	66.4	66.4	66.4	91	63.7	0	0	---	0.00	29.960 
05:25	66.3	66.3	66.3	91	63.6	0	0	---	0.00	29.961 
05:30	66.3	66.3	66.3	92	63.9	0	0	---	0.00	29.961 
05:35	66.1	66.1	66.1	92	63.7	0	0	---	0.00	29.961 
05:40	66.1	66.1	66.1	92	63.7	0	0	---	0.00	29.961 
05:45	66.0	66.0	66.0	92	63.6	0	0	---	0.00	29.961 
05:50	66.0	66.0	66.0	92	63.6	0	0	---	0.00	29.961 
05:55	66.0	66.0	66.0	93	63.9	0	0	---	0.00	29.961 
06:00	66.3	66.3	66.3	93	64.2	0	0	---	0.00	29.962 
06:05	66.4	66.4	66.4	94	64.6	0	0	---	0.00	29.964 
06:10	66.9	66.9	66.9	93	64.8	0	0	---	0.00	29.962 
06:15	67.1	67.1	67.1	93	65.0	0	0	---	0.00	29.965 
06:20	67.4	67.4	67.4	92	65.0	0	0	---	0.00	29.965 
06:25	67.9	67.9	67.9	92	65.5	0	1	248	0.00	29.966 
06:30	68.4	68.4	68.4	90	65.3	0	1	248	0.00	29.965 
06:35	69.1	69.1	69.1	88	65.4	0	1	248	0.00	29.965 
06:40	69.6	69.6	69.6	87	65.6	0	1	248	0.00	29.967 
06:45	70.3	70.3	70.3	85	65.6	0	1	248	0.00	29.965 
06:50	71.1	71.1	71.1	83	65.7	0	0	---	0.00	29.965 
06:55	72.0	72.0	72.0	81	65.8	0	1	248	0.00	29.967 
07:00	72.8	72.8	72.8	79	65.9	0	1	248	0.00	29.966 
07:05	73.3	73.3	73.3	77	65.6	0	1	248	0.00	29.972 
07:10	73.9	73.9	73.9	76	65.8	0	1	248	0.00	29.971 
07:15	74.4	74.4	74.4	75	65.9	0	1	248	0.00	29.971 
07:20	74.9	74.9	74.9	73	65.6	0	1	248	0.00	29.971 
07:25	75.4	75.4	76.9	72	65.7	0	1	248	0.00	29.972 
07:30	76.1	76.1	77.8	70	65.6	0	1	248	0.00	29.970 
07:35	76.5	76.5	78.3	68	65.1	0	2	248	0.00	29.970 
07:40	76.3	76.3	78.1	67	64.5	0	2	248	0.00	29.970 
07:45	76.1	76.1	77.8	68	64.8	0	1	248	0.00	29.971 
07:50	76.5	76.5	78.2	69	65.6	0	1	248	0.00	29.971 
07:55	76.8	76.8	78.6	67	65.0	0	1	248	0.00	29.971 
08:00	77.4	77.4	79.2	65	64.7	0	2	248	0.00	29.970 
08:05	77.9	77.9	79.7	65	65.2	0	1	248	0.00	29.971 
08:10	78.3	78.3	80.2	64	65.1	1	4	248	0.00	29.973 
08:15	78.8	78.8	80.6	62	64.7	1	3	292	0.00	29.971 
08:20	78.8	78.8	80.5	60	63.7	1	2	292	0.00	29.971 
08:25	79.0	79.0	80.8	61	64.4	1	3	292	0.00	29.971 
08:30	79.2	79.2	81.1	62	65.0	1	3	270	0.00	29.968 
08:35	79.9	79.9	81.8	61	65.2	0	3	135	0.00	29.966 
08:40	80.3	80.3	82.2	60	65.1	1	3	248	0.00	29.970 
08:45	80.5	80.5	82.2	58	64.3	1	4	248	0.00	29.970 
08:50	80.3	80.3	81.9	58	64.2	2	5	292	0.00	29.971 
08:55	80.5	80.5	82.3	59	64.8	1	3	225	0.00	29.969 
09:00	80.7	80.7	82.4	58	64.5	2	6	248	0.00	29.970 
09:05	80.9	80.9	82.8	59	65.2	1	3	292	0.00	29.971 
09:10	81.2	81.2	83.0	58	65.0	1	2	292	0.00	29.970 
09:15	81.6	81.6	83.2	56	64.4	1	5	248	0.00	29.970 
09:20	82.0	82.0	83.9	57	65.2	1	3	270	0.00	29.969 
09:25	82.4	82.4	83.9	54	64.1	1	2	270	0.00	29.970 
09:30	82.8	82.8	84.0	52	63.3	1	3	270	0.00	29.967 
09:35	82.8	82.8	84.2	53	63.9	1	3	270	0.00	29.965 
09:40	82.8	82.8	84.2	53	63.9	1	3	270	0.00	29.965 
09:45	83.2	83.2	84.3	51	63.2	1	3	270	0.00	29.964 
09:50	83.4	83.4	84.6	51	63.3	1	3	270	0.00	29.964 
09:55	83.8	83.8	85.1	51	63.7	1	3	270	0.00	29.965 
10:00	84.1	84.1	85.5	51	64.0	1	4	270	0.00	29.965 
10:05	84.7	84.7	85.8	49	63.4	0	2	248	0.00	29.963 
10:10	85.1	85.1	86.6	50	64.3	1	3	248	0.00	29.964 
10:15	85.3	85.3	86.4	48	63.4	2	5	90	0.00	29.962 
10:20	85.3	85.3	86.1	47	62.8	2	3	270	0.00	29.961 
10:25	85.3	85.3	86.4	48	63.4	1	3	225	0.00	29.960 
10:30	85.5	85.5	86.2	46	62.3	2	4	270	0.00	29.958 
10:35	84.9	84.9	85.2	45	61.2	2	4	270	0.00	29.958 
10:40	85.1	85.1	85.7	46	62.0	1	3	270	0.00	29.959 
10:45	85.5	85.5	85.7	44	61.1	2	5	248	0.00	29.957 
10:50	85.5	85.5	85.5	43	60.4	2	6	248	0.00	29.957 
10:55	85.5	85.5	86.2	46	62.3	2	4	248	0.00	29.956 
11:00	85.7	85.7	85.7	43	60.6	1	4	270	0.00	29.955 
11:05	85.7	85.7	86.2	45	61.9	2	5	270	0.00	29.956 
11:10	86.1	86.1	86.2	43	61.0	1	3	248	0.00	29.956 
11:15	85.9	85.9	86.0	43	60.8	2	5	270	0.00	29.956 
11:20	85.9	85.9	85.7	42	60.1	2	4	292	0.00	29.955 
11:25	86.1	86.1	86.0	42	60.3	2	4	270	0.00	29.955 
11:30	86.3	86.3	85.8	40	59.1	2	5	248	0.00	29.957 
11:35	86.5	86.5	86.5	42	60.6	2	5	270	0.00	29.957 
11:40	87.0	87.0	87.1	42	61.1	2	5	270	0.00	29.956 
11:45	87.2	87.2	87.1	41	60.6	2	4	270	0.00	29.956 
11:50	87.4	87.4	86.9	39	59.4	2	5	270	0.00	29.955 
11:55	87.8	87.8	87.6	40	60.4	2	7	248	0.00	29.953 
12:00	87.6	87.6	87.1	39	59.5	3	6	248	0.00	29.951 
12:05	87.4	87.4	86.7	38	58.6	3	7	248	0.00	29.954 
12:10	87.4	87.4	86.9	39	59.4	2	5	270	0.00	29.954 
12:15	87.6	87.6	87.1	39	59.5	2	4	270	0.00	29.949 
12:20	87.4	87.4	86.7	38	58.6	2	4	270	0.00	29.945 
12:25	87.2	87.2	86.6	39	59.2	2	4	292	0.00	29.944 
12:30	87.2	87.2	86.6	39	59.2	3	6	248	0.00	29.942 
12:35	87.4	87.4	87.1	40	60.1	3	6	248	0.00	29.942 
12:40	87.6	87.6	87.9	42	61.6	2	6	0	0.00	29.940 
12:45	87.6	87.6	86.9	38	58.8	3	7	270	0.00	29.941 
12:50	87.6	87.6	86.9	38	58.8	3	6	270	0.00	29.941 
12:55	87.4	87.4	86.9	39	59.4	2	6	270	0.00	29.939 
13:00	87.4	87.4	86.9	39	59.4	3	7	270	0.00	29.939 
13:05	87.6	87.6	87.6	41	60.9	1	3	270	0.00	29.936 
13:10	88.2	88.2	87.4	37	58.6	2	5	270	0.00	29.936 
13:15	88.2	88.2	87.4	37	58.6	2	5	292	0.00	29.933 
13:20	88.4	88.4	88.2	39	60.3	2	5	270	0.00	29.931 
13:25	88.6	88.6	87.9	37	59.0	3	6	270	0.00	29.931 
13:30	88.8	88.8	88.1	37	59.1	2	7	248	0.00	29.927 
13:35	88.6	88.6	87.9	37	59.0	2	7	248	0.00	29.924 
13:40	88.6	88.6	88.2	38	59.7	2	5	248	0.00	29.924 
13:45	88.8	88.8	88.4	38	59.9	2	4	248	0.00	29.925 
13:50	88.8	88.8	88.7	39	60.6	2	5	270	0.00	29.925 
13:55	88.8	88.8	87.4	34	56.8	2	6	270	0.00	29.927 
14:00	89.0	89.0	88.1	36	58.5	1	5	248	0.00	29.924 
14:05	89.3	89.3	89.1	38	60.3	2	5	270	0.00	29.925 
14:10	89.3	89.3	88.3	35	58.0	3	5	270	0.00	29.926 
14:15	89.0	89.0	88.7	38	60.1	3	9	270	0.00	29.925 
14:20	88.8	88.8	88.1	37	59.1	2	6	270	0.00	29.925 
14:25	88.6	88.6	87.9	37	59.0	2	6	248	0.00	29.925 
14:30	89.0	89.0	88.7	38	60.1	1	4	270	0.00	29.925 
14:35	89.5	89.5	89.3	38	60.5	1	4	315	0.00	29.924 
14:40	89.3	89.3	89.1	38	60.3	2	4	270	0.00	29.928 
14:45	88.6	88.6	88.2	38	59.7	1	3	270	0.00	29.932 
14:50	88.8	88.8	89.0	40	61.3	1	4	270	0.00	29.927 
14:55	88.8	88.8	89.6	42	62.7	2	6	248	0.00	29.927 
15:00	89.0	89.0	88.7	38	60.1	2	5	270	0.00	29.925 
15:05	89.3	89.3	88.8	37	59.6	2	7	270	0.00	29.924 
15:10	89.3	89.3	88.8	37	59.6	2	5	270	0.00	29.925 
15:15	88.6	88.6	88.4	39	60.4	2	4	270	0.00	29.926 
15:20	88.6	88.6	88.4	39	60.4	2	4	270	0.00	29.927 
15:25	88.8	88.8	89.0	40	61.3	2	4	270	0.00	29.924 
15:30	89.0	89.0	89.0	39	60.8	2	7	270	0.00	29.923 
15:35	88.8	88.8	88.4	38	59.9	2	7	270	0.00	29.924 
15:40	88.4	88.4	88.4	40	61.0	1	3	248	0.00	29.925 
15:45	88.4	88.4	89.0	42	62.3	1	4	270	0.00	29.924 
15:50	88.8	88.8	89.0	40	61.3	1	5	248	0.00	29.919 
15:55	89.0	89.0	89.0	39	60.8	1	4	248	0.00	29.920 
16:00	88.6	88.6	88.7	40	61.1	1	4	248	0.00	29.917 
16:05	88.4	88.4	88.7	41	61.7	1	5	292	0.00	29.917 
16:10	88.8	88.8	89.6	42	62.7	1	3	270	0.00	29.918 
16:15	88.8	88.8	88.7	39	60.6	2	5	248	0.00	29.921 
16:20	88.6	88.6	89.0	41	61.8	1	6	270	0.00	29.917 
16:25	88.8	88.8	88.7	39	60.6	1	4	248	0.00	29.917 
16:30	88.8	88.8	88.4	38	59.9	2	5	270	0.00	29.917 
16:35	89.0	89.0	89.0	39	60.8	1	3	270	0.00	29.914 
16:40	88.6	88.6	88.4	39	60.4	1	3	270	0.00	29.915 
16:45	87.8	87.8	87.4	39	59.7	1	4	270	0.00	29.916 
16:50	87.6	87.6	87.1	39	59.5	2	4	270	0.00	29.914 
16:55	88.0	88.0	87.6	39	59.9	2	6	248	0.00	29.915 
17:00	88.0	88.0	87.9	40	60.6	1	3	270	0.00	29.914 
17:05	88.0	88.0	87.6	39	59.9	2	5	270	0.00	29.912 
17:10	87.2	87.2	86.9	40	59.9	2	4	292	0.00	29.915 
17:15	86.7	86.7	86.3	40	59.5	2	4	270	0.00	29.914 
17:20	86.5	86.5	86.3	41	60.0	2	4	248	0.00	29.913 
17:25	86.3	86.3	86.2	42	60.5	1	4	248	0.00	29.912 
17:30	86.5	86.5	86.3	41	60.0	2	6	270	0.00	29.913 
17:35	86.7	86.7	86.0	39	58.7	1	5	270	0.00	29.912 
17:40	87.0	87.0	86.9	41	60.4	1	3	270	0.00	29.910 
17:45	87.0	87.0	86.9	41	60.4	1	5	270	0.00	29.907 
17:50	86.7	86.7	86.5	41	60.1	2	4	270	0.00	29.910 
17:55	86.5	86.5	86.3	41	60.0	1	4	270	0.00	29.909 
18:00	86.3	86.3	86.2	42	60.5	1	6	248	0.00	29.910 
18:05	85.9	85.9	86.0	43	60.8	1	3	248	0.00	29.906 
18:10	85.9	85.9	86.0	43	60.8	1	6	248	0.00	29.906 
18:15	85.9	85.9	86.0	43	60.8	1	4	248	0.00	29.905 
18:20	86.1	86.1	86.2	43	61.0	1	3	270	0.00	29.905 
18:25	86.1	86.1	86.5	44	61.6	1	4	270	0.00	29.907 
18:30	85.9	85.9	86.2	44	61.4	0	2	248	0.00	29.907 
18:35	85.7	85.7	86.4	46	62.5	0	1	248	0.00	29.908 
18:40	85.5	85.5	85.9	45	61.7	0	2	248	0.00	29.908 
18:45	85.3	85.3	85.5	44	60.9	1	2	270	0.00	29.908 
18:50	85.1	85.1	85.4	45	61.3	0	1	270	0.00	29.908 
18:55	84.7	84.7	85.2	46	61.6	0	1	270	0.00	29.907 
19:00	84.3	84.3	84.7	46	61.2	0	2	248	0.00	29.908 
19:05	84.1	84.1	84.6	47	61.7	0	2	248	0.00	29.907 
19:10	84.0	84.0	84.5	47	61.6	0	1	248	0.00	29.906 
19:15	83.6	83.6	84.2	48	61.8	0	2	248	0.00	29.906 
19:20	83.4	83.4	84.2	49	62.2	0	2	248	0.00	29.905 
19:25	83.4	83.4	84.2	49	62.2	0	2	248	0.00	29.906 
19:30	83.4	83.4	84.4	50	62.8	0	2	248	0.00	29.906 
19:35	83.2	83.2	84.3	51	63.2	0	1	248	0.00	29.906 
19:40	83.0	83.0	84.1	51	63.0	0	1	248	0.00	29.906 
19:45	82.8	82.8	84.0	52	63.3	0	2	248	0.00	29.905 
19:50	82.6	82.6	84.0	53	63.7	0	1	248	0.00	29.905 
19:55	82.4	82.4	83.7	53	63.5	0	1	248	0.00	29.904 
20:00	82.4	82.4	83.9	54	64.1	0	1	248	0.00	29.906 
20:05	82.2	82.2	83.6	54	63.9	0	2	248	0.00	29.904 
20:10	82.2	82.2	83.5	53	63.3	0	2	248	0.00	29.904 
20:15	82.2	82.2	83.5	53	63.3	0	2	248	0.00	29.903 
20:20	82.2	82.2	83.5	53	63.3	0	1	248	0.00	29.904 
20:25	82.0	82.0	83.2	53	63.2	0	1	248	0.00	29.904 
20:30	82.0	82.0	83.2	53	63.2	0	1	248	0.00	29.905 
20:35	81.8	81.8	83.0	53	63.0	0	1	248	0.00	29.905 
20:40	81.6	81.6	82.9	54	63.3	0	1	248	0.00	29.904 
20:45	81.4	81.4	82.5	53	62.6	0	1	248	0.00	29.905 
20:50	81.4	81.4	82.5	53	62.6	0	1	248	0.00	29.905 
20:55	81.2	81.2	82.3	53	62.4	0	1	248	0.00	29.905 
21:00	81.1	81.1	82.3	54	62.9	0	0	---	0.00	29.906 
21:05	80.9	80.9	82.4	56	63.7	0	0	---	0.00	29.905 
21:10	80.5	80.5	81.9	56	63.3	0	0	---	0.00	29.905 
21:15	80.1	80.1	81.5	56	63.0	0	0	---	0.00	29.905 
21:20	79.9	79.9	81.4	57	63.3	0	0	---	0.00	29.906 
21:25	79.8	79.8	81.3	57	63.2	0	0	---	0.00	29.906 
21:30	79.4	79.4	80.9	58	63.3	0	0	---	0.00	29.910 
21:35	79.0	79.0	80.5	58	62.9	0	0	---	0.00	29.909 
21:40	78.8	78.8	80.3	58	62.8	0	0	---	0.00	29.910 
21:45	78.5	78.5	80.2	60	63.4	0	0	---	0.00	29.910 
21:50	78.3	78.3	80.0	60	63.2	0	0	---	0.00	29.910 
21:55	77.9	77.9	79.6	61	63.3	0	0	---	0.00	29.912 
22:00	77.7	77.7	79.4	62	63.6	0	0	---	0.00	29.910 
22:05	77.4	77.4	79.2	62	63.3	0	0	---	0.00	29.908 
22:10	77.2	77.2	79.0	62	63.2	0	0	---	0.00	29.909 
22:15	77.0	77.0	78.8	63	63.4	0	0	---	0.00	29.907 
22:20	76.8	76.8	78.6	65	64.1	0	0	---	0.00	29.906 
22:25	76.7	76.7	78.5	65	64.0	0	0	---	0.00	29.909 
22:30	76.5	76.5	78.3	65	63.8	0	0	---	0.00	29.910 
22:35	76.3	76.3	78.1	66	64.1	0	0	---	0.00	29.910 
22:40	76.3	76.3	78.1	66	64.1	0	0	---	0.00	29.908 
22:45	76.1	76.1	77.9	67	64.3	0	0	---	0.00	29.907 
22:50	76.1	76.1	77.9	67	64.3	0	0	---	0.00	29.906 
22:55	76.0	76.0	77.7	68	64.7	0	0	---	0.00	29.906 
23:00	75.8	75.8	77.6	68	64.5	0	1	248	0.00	29.906 
23:05	75.8	75.8	77.5	69	64.9	0	1	248	0.00	29.904 
23:10	76.0	76.0	77.7	68	64.7	0	1	248	0.00	29.903 
23:15	76.0	76.0	77.7	69	65.1	0	1	248	0.00	29.904 
23:20	76.0	76.0	77.7	68	64.7	0	1	248	0.00	29.906 
23:25	76.1	76.1	77.8	68	64.8	0	0	---	0.00	29.906 
23:30	76.1	76.1	77.8	68	64.8	0	0	---	0.00	29.904 
23:35	76.3	76.3	78.0	68	64.9	0	1	248	0.00	29.904 
23:40	76.3	76.3	78.0	68	64.9	0	0	---	0.00	29.905 
23:45	76.3	76.3	78.0	68	64.9	0	0	---	0.00	29.906 
23:50	76.3	76.3	78.0	68	64.9	0	0	---	0.00	29.907 
23:55	76.3	76.3	78.0	68	64.9	0	1	248	0.00	29.909 

CoCoRaHS
IN-AL-39
A2 Web Hosting
Creative Commons License
GoDaddy
Look for:

loaded 2017-10-18 07:21:23 • last modified 2010-11-18 10:43:29
Privacy PolicyDisclaimer
• wx.awcolley.com is powered by PmWiki v.2002016 •
• all content (unless otherwise noted) © 2017 A W Colley